METAR AND TAF INFORMATION
METAR FOR LGEL
ADDS - METARS form results

(1735 UTC 03 October 2022)
Data provider http://aviationweather.gov/metar/data/
 
METAR text: LGEL 031720Z 00000KT 9999 FEW025 23/14 Q1011
Conditions at: LGEL (ELEFSIS (HEL-AFB, GR) observed 1720 UTC 03 October 2022
Temperature: 23.0°C (73°F)
Dewpoint: 14.0°C (57°F) [RH = 57%]
Pressure (altimeter): 29.85 inches Hg (1011.0 mb)
Winds: calm
Visibility: 6 or more miles (10+ km)
Ceiling: at least 12,000 feet AGL
Clouds: few clouds at 2500 feet AGL
Weather: no significant weather observed at this time

METAR text: LGEL 031650Z 00000KT 9999 SCT025 24/15 Q1011
Conditions at: LGEL (ELEFSIS (HEL-AFB, GR) observed 1650 UTC 03 October 2022
Temperature: 24.0°C (75°F)
Dewpoint: 15.0°C (59°F) [RH = 57%]
Pressure (altimeter): 29.85 inches Hg (1011.0 mb)
Winds: calm
Visibility: 6 or more miles (10+ km)
Ceiling: at least 12,000 feet AGL
Clouds: scattered clouds at 2500 feet AGL
Weather: no significant weather observed at this time

Forecast for: LGEL (ELEFSIS (HEL-AFB, GR)
Text: TAF LGEL 031700Z 0318/0418 VRB05KT 9999 FEW018 SCT020
Forecast period: 1800 UTC 03 October 2022 to 0200 UTC 04 October 2022
Forecast type: FROM: standard forecast or significant change
Winds: variable direction winds at 6 MPH (5 knots; 2.6 m/s)
Visibility: 6 or more miles (10+ km)
Ceiling: at least 12,000 feet AGL
Clouds: few clouds at 1800 feet AGL
scattered clouds at 2000 feet AGL
Weather: no significant weather forecast for this period
Text: BECMG 0402/0404 36012G22KT
Forecast period: 0200 to 1800 UTC 04 October 2022
Forecast type: BECOMING: Conditions expected to become as follows by 0400 UTC 04 October 2022
Winds: from the N (360 degrees) at 14 MPH (12 knots; 6.2 m/s)
gusting to 25 MPH (22 knots; 11.3 m/s)
Visibility: 6 or more miles (10+ km)
Ceiling: at least 12,000 feet AGL
Clouds: few clouds at 1800 feet AGL
scattered clouds at 2000 feet AGL
Weather: no significant weather forecast for this period

 AIRPORT MAP

 RUNWAY INFORMATION
Runway 18 Runway length 8985 ft Runway width 131 ft
Runway elevation 129 ft Runway displaced threshold 0 ft Runway heading 180
Runway 36 Runway length 8985 ft Runway width 131 ft
Runway elevation 20 ft Runway displaced threshold 198 ft Runway heading 360

 AIRPORT FREQUENCIES
Type APP Name ATHINAI AP Frequency 119.1 MHZ
Type TWR Name TWR Frequency 120.15 MHZ

 AIRPORT NEAR NAVIGATION AIDS
Type TACAN Name Elefsis Frequency 108200 KHZ
Type NDB Name Elefsis Frequency 418 KHZ





Powered by Virtual Airlines Manager

Maps by Rafael Santos